createdAt,value
2023-03-24T00:02:04.864Z,10.76
2023-03-24T00:12:26.545Z,10.75
2023-03-24T00:22:51.236Z,10.74
2023-03-24T00:33:13.795Z,10.73
2023-03-24T00:43:35.288Z,10.70
2023-03-24T00:53:58.297Z,10.69
2023-03-24T01:04:20.855Z,10.68
2023-03-24T01:14:42.069Z,10.66
2023-03-24T01:25:05.300Z,10.65
2023-03-24T01:35:29.378Z,10.64
2023-03-24T01:46:14.583Z,10.62
2023-03-24T01:56:40.479Z,10.60
2023-03-24T02:07:04.563Z,10.57
2023-03-24T02:17:52.114Z,10.55
2023-03-24T02:28:29.067Z,10.54
2023-03-24T02:39:09.591Z,10.50
2023-03-24T02:49:48.862Z,10.48
2023-03-24T03:00:18.380Z,10.45
2023-03-24T03:11:05.772Z,10.44
2023-03-24T03:21:31.158Z,10.40
2023-03-24T03:31:59.855Z,10.37
2023-03-24T03:42:21.258Z,10.36
2023-03-24T03:52:44.841Z,10.32
2023-03-24T04:03:37.348Z,10.31
2023-03-24T04:14:00.767Z,10.28
2023-03-24T04:24:42.621Z,10.25
2023-03-24T04:35:32.923Z,10.24
2023-03-24T04:46:05.298Z,10.21
2023-03-24T04:56:51.154Z,10.19
2023-03-24T05:07:17.705Z,10.17
2023-03-24T05:17:42.605Z,10.14
2023-03-24T05:28:05.035Z,10.12
2023-03-24T05:38:27.306Z,10.12
2023-03-24T05:48:50.324Z,10.12
2023-03-24T05:59:14.342Z,10.12
2023-03-24T06:09:58.534Z,10.12
2023-03-24T06:20:21.616Z,10.13
2023-03-24T06:31:05.389Z,10.14
2023-03-24T06:41:30.340Z,10.16
2023-03-24T06:51:55.109Z,10.19
2023-03-24T07:02:18.972Z,10.22
2023-03-24T07:12:44.934Z,10.27
2023-03-24T07:23:06.352Z,10.32
2023-03-24T07:33:44.741Z,10.36
2023-03-24T07:44:05.978Z,10.42
2023-03-24T07:54:43.399Z,10.48
2023-03-24T08:05:14.667Z,10.56
2023-03-24T08:15:46.845Z,10.60
2023-03-24T08:26:10.841Z,10.67
2023-03-24T08:36:32.619Z,10.75
2023-03-24T08:46:53.702Z,10.89
2023-03-24T08:57:15.125Z,11.04
2023-03-24T09:07:37.115Z,11.23
2023-03-24T09:17:58.240Z,11.35
2023-03-24T09:28:20.588Z,11.52
2023-03-24T09:38:41.545Z,11.64
2023-03-24T09:49:04.493Z,11.73
2023-03-24T09:59:28.800Z,11.81
2023-03-24T10:10:01.518Z,11.92
2023-03-24T10:20:53.887Z,11.96
2023-03-24T10:31:17.020Z,11.97
2023-03-24T10:41:38.714Z,11.99
2023-03-24T10:52:09.360Z,12.01
2023-03-24T11:02:32.064Z,11.96
2023-03-24T11:12:53.837Z,12.00
2023-03-24T11:23:18.029Z,12.04
2023-03-24T11:33:46.763Z,12.09
2023-03-24T11:44:25.955Z,12.10
2023-03-24T11:54:47.170Z,12.15
2023-03-24T12:05:24.217Z,12.17
2023-03-24T12:15:56.194Z,12.23
2023-03-24T12:26:21.590Z,12.26
2023-03-24T12:37:06.266Z,12.33
2023-03-24T12:47:57.470Z,12.41
2023-03-24T12:58:23.135Z,12.52
2023-03-24T13:08:50.444Z,12.57
2023-03-24T13:19:18.675Z,12.56
2023-03-24T13:30:19.550Z,12.57
2023-03-24T13:40:41.237Z,12.59
2023-03-24T13:51:09.287Z,12.63
2023-03-24T14:01:41.159Z,12.65
2023-03-24T14:12:02.350Z,12.67
2023-03-24T14:22:30.878Z,12.70
2023-03-24T14:32:57.123Z,12.75
2023-03-24T14:43:29.720Z,12.77
2023-03-24T14:53:51.299Z,12.75
2023-03-24T15:04:13.980Z,12.76
2023-03-24T15:14:35.734Z,12.75
2023-03-24T15:24:58.341Z,12.78
2023-03-24T15:35:22.226Z,12.82
2023-03-24T15:45:57.893Z,12.84
2023-03-24T15:56:28.311Z,12.85
2023-03-24T16:06:53.546Z,12.84
2023-03-24T16:17:15.583Z,12.78
2023-03-24T16:27:36.814Z,12.70
2023-03-24T16:37:58.290Z,12.65
2023-03-24T16:48:19.466Z,12.57
2023-03-24T16:58:40.987Z,12.44
2023-03-24T17:09:04.331Z,12.33
2023-03-24T17:19:26.054Z,12.24
2023-03-24T17:29:47.293Z,12.14
2023-03-24T17:40:10.707Z,12.06
2023-03-24T17:50:32.046Z,11.97
2023-03-24T18:00:54.081Z,11.91
2023-03-24T18:11:15.666Z,11.85
2023-03-24T18:21:37.851Z,11.81
2023-03-24T18:31:58.943Z,11.77
2023-03-24T18:42:20.468Z,11.71
2023-03-24T18:52:42.047Z,11.68
2023-03-24T19:03:03.210Z,11.66
2023-03-24T19:13:24.725Z,11.61
2023-03-24T19:23:47.082Z,11.58
2023-03-24T19:34:08.940Z,11.54
2023-03-24T19:44:30.461Z,11.50
2023-03-24T19:54:52.652Z,11.46
2023-03-24T20:05:15.038Z,11.41
2023-03-24T20:15:36.535Z,11.37
2023-03-24T20:26:01.202Z,11.36
2023-03-24T20:36:22.745Z,11.30
2023-03-24T20:46:45.900Z,11.25
2023-03-24T20:57:12.177Z,11.22
2023-03-24T21:07:33.497Z,11.19
2023-03-24T21:17:54.929Z,11.14
2023-03-24T21:28:19.714Z,11.05
2023-03-24T21:38:41.767Z,11.01
2023-03-24T21:49:03.252Z,10.97
2023-03-24T21:59:24.657Z,10.92
2023-03-24T22:09:45.767Z,10.85
2023-03-24T22:20:09.425Z,10.81
2023-03-24T22:30:30.706Z,10.75
2023-03-24T22:40:55.814Z,10.69
2023-03-24T22:51:19.538Z,10.62
2023-03-24T23:01:41.287Z,10.56
2023-03-24T23:12:02.854Z,10.50
2023-03-24T23:22:23.725Z,10.43
2023-03-24T23:32:47.134Z,10.35
2023-03-24T23:43:08.818Z,10.30
2023-03-24T23:53:30.934Z,10.26
